Time;durP1;ratioP1;P1;durP2;ratioP2;P2;SDS_P1;SDS_P2;PMS_P1;PMS_P2;Temp;Humidity;BMP_temperature;BMP_pressure;BME280_temperature;BME280_humidity;BME280_pressure;Samples;Min_cycle;Max_cycle;Signal;HPM_P1;HPM_P2
2022/04/25 00:01:32;;;;;;;86.33;39.67;;;;;;;10.59;74.29;98552.00;5014847;28;20049;-86
2022/04/25 00:03:59;;;;;;;83.97;39.70;;;;;;;10.96;74.40;98602.03;5050870;28;20139;-85
2022/04/25 00:06:25;;;;;;;87.20;37.13;;;;;;;10.94;74.23;98595.28;5052590;28;20115;-83
2022/04/25 00:08:52;;;;;;;83.30;38.17;;;;;;;10.98;74.19;98601.75;5068789;28;20044;-83
2022/04/25 00:11:18;;;;;;;79.97;37.30;;;;;;;10.98;74.19;98596.28;5068625;28;20045;-83
2022/04/25 00:13:44;;;;;;;81.13;37.03;;;;;;;10.90;74.32;98581.41;5052676;28;20398;-82
2022/04/25 00:16:10;;;;;;;72.32;36.20;;;;;;;10.91;74.64;98605.69;5015326;28;20401;-82
2022/04/25 00:18:37;;;;;;;76.97;34.42;;;;;;;10.92;74.43;98595.56;5050784;28;20195;-81
2022/04/25 00:21:04;;;;;;;68.10;33.13;;;;;;;10.91;74.61;98592.03;5049773;28;20053;-83
2022/04/25 00:23:30;;;;;;;83.22;34.28;;;;;;;10.94;74.45;98601.53;5031993;28;20241;-80
2022/04/25 00:25:56;;;;;;;71.80;33.72;;;;;;;10.95;74.56;98605.09;5050448;28;20049;-81
2022/04/25 00:28:23;;;;;;;70.15;33.72;;;;;;;10.93;74.70;98597.19;5048966;28;20041;-81
2022/04/25 00:30:49;;;;;;;71.95;34.13;;;;;;;10.87;74.59;98598.44;5051108;28;20467;-81
2022/04/25 00:33:15;;;;;;;63.65;34.22;;;;;;;10.86;74.54;98597.59;5015773;28;20048;-81
2022/04/25 00:35:42;;;;;;;70.57;34.03;;;;;;;10.83;74.93;98600.13;5024459;28;20106;-81
2022/04/25 00:38:10;;;;;;;72.90;34.15;;;;;;;10.76;75.25;98608.75;5049887;28;20464;-81
2022/04/25 00:40:36;;;;;;;74.25;34.47;;;;;;;10.81;75.13;98599.63;5050396;28;20053;-81
2022/04/25 00:43:02;;;;;;;64.07;31.50;;;;;;;10.74;75.37;98597.31;5031560;28;20099;-82
2022/04/25 00:45:34;;;;;;;72.18;33.20;;;;;;;10.77;75.10;98591.22;5032190;28;20830;-82
2022/04/25 00:48:01;;;;;;;67.30;32.45;;;;;;;10.81;75.01;98595.00;5008144;28;20041;-82
2022/04/25 00:50:28;;;;;;;72.00;33.85;;;;;;;10.77;75.03;98586.59;5037108;28;20041;-82
2022/04/25 00:52:55;;;;;;;65.75;32.70;;;;;;;10.80;75.01;98589.81;5029968;28;20476;-80
2022/04/25 00:55:22;;;;;;;69.45;31.80;;;;;;;10.80;74.88;98587.91;5032793;28;20173;-82
2022/04/25 00:57:50;;;;;;;75.25;33.35;;;;;;;10.79;75.20;98594.50;5051172;28;20059;-82
2022/04/25 01:00:17;;;;;;;71.18;32.65;;;;;;;10.74;75.28;98595.41;5032913;28;20457;-83
2022/04/25 01:02:44;;;;;;;71.70;35.08;;;;;;;10.69;75.52;98594.69;5047730;28;20141;-82
2022/04/25 01:05:10;;;;;;;80.03;35.20;;;;;;;10.76;75.24;98595.09;5045503;28;20506;-83
2022/04/25 01:07:38;;;;;;;77.20;37.85;;;;;;;10.73;75.43;98587.50;5016406;28;20457;-82
2022/04/25 01:10:10;;;;;;;70.25;34.15;;;;;;;10.73;75.27;98584.75;5032637;28;20484;-86
2022/04/25 01:12:38;;;;;;;79.75;37.42;;;;;;;10.83;75.01;98594.66;5032701;28;20045;-86
2022/04/25 01:15:07;;;;;;;106.65;47.33;;;;;;;10.82;75.20;98607.53;5044656;28;20144;-86
2022/04/25 01:17:34;;;;;;;80.38;36.40;;;;;;;10.82;75.07;98604.00;5031916;28;20155;-85
2022/04/25 01:20:01;;;;;;;80.40;35.53;;;;;;;10.80;75.21;98611.69;5032994;28;20088;-85
2022/04/25 01:22:31;;;;;;;78.57;35.58;;;;;;;10.77;75.12;98605.72;5040789;28;20049;-85
2022/04/25 01:27:43;;;;;;;77.00;37.80;;;;;;;10.74;75.44;98620.00;5050640;28;20052;-83
2022/04/25 01:30:10;;;;;;;79.40;36.75;;;;;;;10.73;75.28;98614.84;5015925;28;20053;-84
2022/04/25 01:32:40;;;;;;;68.45;32.80;;;;;;;10.59;75.97;98610.19;5031517;28;20044;-84
2022/04/25 01:35:07;;;;;;;78.85;36.97;;;;;;;10.48;76.31;98615.03;5019006;28;20052;-82
2022/04/25 01:37:33;;;;;;;87.32;34.63;;;;;;;10.40;76.47;98603.97;5048312;28;20056;-83
2022/04/25 01:40:00;;;;;;;64.53;31.15;;;;;;;10.50;76.21;98603.81;5032726;28;20496;-82
2022/04/25 01:42:26;;;;;;;62.42;28.52;;;;;;;10.54;75.30;98576.69;5050258;28;20494;-84
2022/04/25 01:44:52;;;;;;;65.93;28.77;;;;;;;10.68;74.79;98580.19;5042526;28;20102;-85
2022/04/25 01:47:19;;;;;;;56.70;26.05;;;;;;;10.84;74.33;98599.84;5049000;28;20045;-84
2022/04/25 01:49:46;;;;;;;53.35;24.40;;;;;;;10.87;73.99;98612.09;5017978;28;20048;-83
2022/04/25 01:52:18;;;;;;;51.67;24.05;;;;;;;10.71;73.63;98578.78;5036428;28;20337;-84
2022/04/25 01:54:45;;;;;;;46.40;22.85;;;;;;;10.72;73.98;98605.84;5028433;28;20054;-83
2022/04/25 01:57:12;;;;;;;45.75;22.30;;;;;;;10.68;73.99;98598.53;5021828;28;20115;-83
2022/04/25 01:59:39;;;;;;;50.38;23.90;;;;;;;10.71;73.97;98592.47;5029832;28;20072;-84
2022/04/25 02:02:06;;;;;;;53.33;25.65;;;;;;;10.71;73.99;98600.66;5018786;28;20115;-84
2022/04/25 02:04:33;;;;;;;54.35;26.13;;;;;;;10.72;73.72;98599.53;5032269;28;20671;-84
2022/04/25 02:06:59;;;;;;;57.80;27.20;;;;;;;10.62;73.75;98584.16;5035886;28;20045;-83
2022/04/25 02:09:25;;;;;;;55.15;24.52;;;;;;;10.67;73.79;98605.13;5031488;28;20049;-83
2022/04/25 02:11:51;;;;;;;56.97;25.58;;;;;;;10.70;73.74;98602.59;5037492;28;20052;-83
2022/04/25 02:14:19;;;;;;;51.78;24.98;;;;;;;10.72;73.85;98607.75;5020342;28;20053;-83
2022/04/25 02:16:47;;;;;;;49.17;23.48;;;;;;;10.64;73.96;98609.28;5053148;28;20069;-83
2022/04/25 02:19:13;;;;;;;49.70;23.42;;;;;;;10.46;74.61;98600.09;5039690;28;20064;-83
2022/04/25 02:21:39;;;;;;;47.30;23.92;;;;;;;10.48;74.75;98606.84;5026650;28;20047;-83
2022/04/25 02:24:06;;;;;;;50.50;23.33;;;;;;;10.40;75.24;98603.97;5001551;28;20079;-84
2022/04/25 02:26:32;;;;;;;45.88;22.55;;;;;;;10.48;74.78;98612.31;5036360;28;20057;-84
2022/04/25 02:28:59;;;;;;;45.97;21.60;;;;;;;10.58;74.58;98615.97;5035565;28;20084;-84
2022/04/25 02:31:26;;;;;;;47.45;23.00;;;;;;;10.59;74.35;98618.38;5052135;28;20049;-81
2022/04/25 02:33:53;;;;;;;70.10;22.38;;;;;;;10.52;74.75;98617.16;5051028;28;20501;-81
2022/04/25 02:36:19;;;;;;;45.33;20.63;;;;;;;10.55;74.50;98614.63;5034659;28;20048;-82
2022/04/25 02:38:45;;;;;;;45.28;21.58;;;;;;;10.65;74.13;98624.56;5018029;28;20143;-82
2022/04/25 02:41:12;;;;;;;43.47;21.42;;;;;;;10.61;74.22;98613.44;5051812;28;20122;-82
2022/04/25 02:43:40;;;;;;;47.13;22.42;;;;;;;10.40;74.36;98582.13;5034624;28;20053;-83
2022/04/25 02:46:07;;;;;;;;;;;;;;;10.66;74.01;98615.25;5036298;28;20518;-84
2022/04/25 02:48:35;;;;;;;53.55;21.52;;;;;;;10.64;73.81;98612.81;5018137;28;19952;-84
2022/04/25 02:51:02;;;;;;;46.08;21.08;;;;;;;10.63;73.75;98626.78;5035975;28;20075;-84
2022/04/25 02:53:29;;;;;;;47.30;21.95;;;;;;;10.61;73.98;98621.66;5035185;28;20076;-84
2022/04/25 02:55:56;;;;;;;50.40;21.50;;;;;;;10.65;73.57;98630.03;5050111;28;20056;-84
2022/04/25 02:58:23;;;;;;;47.40;21.15;;;;;;;10.61;73.74;98618.09;5028815;28;20049;-84
2022/04/25 03:00:50;;;;;;;55.05;23.60;;;;;;;10.61;73.83;98629.84;5034360;28;20140;-84
2022/04/25 03:03:19;;;;;;;56.33;23.00;;;;;;;10.59;73.99;98628.53;5034796;28;20148;-84
2022/04/25 03:05:47;;;;;;;47.83;23.17;;;;;;;10.62;73.93;98622.44;4994870;28;20111;-83
2022/04/25 03:08:16;;;;;;;43.35;21.67;;;;;;;10.55;74.03;98622.84;5034082;28;20072;-84
2022/04/25 03:10:45;;;;;;;48.97;22.58;;;;;;;10.54;73.85;98604.81;5018701;28;20632;-82
2022/04/25 03:13:14;;;;;;;62.95;22.77;;;;;;;10.66;74.01;98623.44;5033927;28;20095;-83
2022/04/25 03:15:42;;;;;;;50.60;23.35;;;;;;;10.43;74.47;98597.94;5042961;28;20047;-84
2022/04/25 03:18:10;;;;;;;54.88;22.58;;;;;;;10.48;74.60;98625.19;5033832;28;20049;-83
2022/04/25 03:20:37;;;;;;;43.97;20.83;;;;;;;10.54;74.47;98623.16;5052863;28;20053;-82
2022/04/25 03:23:05;;;;;;;44.22;20.45;;;;;;;10.58;74.28;98624.16;5041952;28;20057;-81
2022/04/25 03:25:32;;;;;;;42.97;21.00;;;;;;;10.56;74.02;98619.00;5032900;28;20036;-81
2022/04/25 03:27:58;;;;;;;46.35;22.00;;;;;;;10.61;74.10;98629.84;5049555;28;20488;-82
2022/04/25 03:30:26;;;;;;;49.23;21.27;;;;;;;10.59;74.36;98634.78;5017362;28;20073;-82
2022/04/25 03:32:52;;;;;;;54.42;23.55;;;;;;;10.59;74.24;98634.78;5001063;28;20307;-83
2022/04/25 03:35:22;;;;;;;50.30;21.13;;;;;;;10.65;74.01;98632.75;5049316;28;20041;-81
2022/04/25 03:37:49;;;;;;;44.83;22.40;;;;;;;10.67;74.16;98630.53;5033433;28;20509;-81
2022/04/25 03:40:17;;;;;;;41.33;20.35;;;;;;;10.64;74.17;98642.91;5042871;28;20106;-81
2022/04/25 03:42:44;;;;;;;45.65;20.95;;;;;;;10.66;73.97;98636.31;5055938;28;20045;-80
2022/04/25 03:45:15;;;;;;;43.22;19.23;;;;;;;10.72;73.63;98641.38;5037244;28;20413;-79
2022/04/25 03:47:41;;;;;;;54.42;21.23;;;;;;;10.77;73.31;98624.03;5031911;28;20151;-81
2022/04/25 03:50:09;;;;;;;45.85;21.63;;;;;;;10.74;73.30;98635.59;5034858;28;20048;-80
2022/04/25 03:52:36;;;;;;;45.78;20.33;;;;;;;10.65;73.35;98627.28;5059120;28;20072;-78
2022/04/25 03:57:51;;;;;;;64.97;19.65;;;;;;;10.60;72.65;98638.34;5029878;28;20053;-79
2022/04/25 04:00:18;;;;;;;41.13;18.25;;;;;;;10.76;72.22;98634.19;5019813;28;20603;-80
2022/04/25 04:02:44;;;;;;;43.30;18.10;;;;;;;10.76;72.41;98644.28;5050066;28;20052;-79
2022/04/25 04:05:10;;;;;;;41.05;17.67;;;;;;;10.81;72.23;98632.44;5047492;28;20052;-80
2022/04/25 04:07:37;;;;;;;39.47;17.98;;;;;;;10.90;71.66;98634.16;5031393;28;20049;-80
2022/04/25 04:10:04;;;;;;;32.38;17.17;;;;;;;10.87;71.63;98633.97;5009127;28;20083;-81
2022/04/25 04:12:31;;;;;;;44.15;18.95;;;;;;;10.93;71.28;98621.81;5051041;28;20110;-81
2022/04/25 04:14:59;;;;;;;47.83;18.55;;;;;;;10.95;71.16;98613.31;5048318;28;20422;-81
2022/04/25 04:17:25;;;;;;;37.45;17.52;;;;;;;10.89;70.96;98599.72;5033903;28;20552;-81
2022/04/25 04:19:53;;;;;;;43.47;17.50;;;;;;;10.97;70.43;98605.59;5021378;28;20070;-82
2022/04/25 04:22:21;;;;;;;42.25;15.80;;;;;;;11.03;70.29;98607.94;5024980;28;20409;-81
2022/04/25 04:24:48;;;;;;;38.38;18.55;;;;;;;11.12;69.80;98605.28;5035353;28;20111;-81
2022/04/25 04:27:14;;;;;;;41.25;17.25;;;;;;;10.93;69.69;98567.13;5032935;28;20178;-81
2022/04/25 04:29:42;;;;;;;31.85;15.48;;;;;;;11.10;69.70;98614.88;5016637;28;20050;-82
2022/04/25 04:32:09;;;;;;;39.38;16.15;;;;;;;11.12;69.47;98607.19;5047232;28;20472;-82
2022/04/25 04:34:36;;;;;;;33.10;15.07;;;;;;;11.15;69.38;98606.56;5033498;28;20160;-82
2022/04/25 04:37:03;;;;;;;37.10;15.32;;;;;;;11.10;69.02;98598.47;5018261;28;20061;-82
2022/04/25 04:39:31;;;;;;;32.58;14.70;;;;;;;11.04;68.94;98606.81;5046687;28;20049;-80
2022/04/25 04:41:58;;;;;;;29.50;15.10;;;;;;;11.09;68.45;98614.09;5028383;28;20072;-80
2022/04/25 04:44:24;;;;;;;38.30;16.03;;;;;;;11.07;68.64;98606.19;5043864;28;20401;-80
2022/04/25 04:46:50;;;;;;;40.08;16.35;;;;;;;11.02;69.07;98602.75;5030963;28;20048;-80
2022/04/25 04:49:17;;;;;;;34.55;16.33;;;;;;;11.04;69.08;98595.03;5012661;28;20053;-80
2022/04/25 04:51:43;;;;;;;39.80;17.05;;;;;;;11.06;69.24;98595.53;5016257;28;20429;-80
2022/04/25 04:54:10;;;;;;;39.05;17.13;;;;;;;11.09;69.13;98585.91;5047535;28;20048;-80
2022/04/25 04:56:36;;;;;;;42.47;19.67;;;;;;;11.14;69.43;98599.47;5029774;28;20052;-80
2022/04/25 04:59:02;;;;;;;38.03;16.25;;;;;;;11.17;69.33;98605.16;5054014;28;20049;-80
2022/04/25 05:01:29;;;;;;;45.60;18.85;;;;;;;11.15;69.33;98601.91;5057150;28;20053;-82
2022/04/25 05:03:58;;;;;;;42.40;19.60;;;;;;;11.21;69.35;98611.63;5016275;28;20938;-82
2022/04/25 05:06:26;;;;;;;40.40;18.92;;;;;;;11.12;69.16;98602.53;5009118;28;20064;-83
2022/04/25 05:08:52;;;;;;;57.80;21.38;;;;;;;11.25;69.19;98613.75;5029867;28;20144;-81
2022/04/25 05:11:18;;;;;;;36.35;17.38;;;;;;;11.19;68.81;98611.13;5045910;28;20076;-81
2022/04/25 05:13:44;;;;;;;42.95;19.08;;;;;;;11.28;68.80;98613.94;5050520;28;20351;-81
2022/04/25 05:16:10;;;;;;;41.72;16.25;;;;;;;11.24;68.54;98615.66;5047411;28;20272;-80
2022/04/25 05:18:37;;;;;;;34.28;15.70;;;;;;;11.28;68.41;98624.06;5065865;28;20072;-79
2022/04/25 05:21:07;;;;;;;30.60;15.55;;;;;;;11.27;68.17;98649.81;5033285;28;20583;-80
2022/04/25 05:23:34;;;;;;;35.78;16.65;;;;;;;11.16;67.58;98617.22;5049300;28;20053;-82
2022/04/25 05:26:01;;;;;;;36.90;14.80;;;;;;;11.28;67.21;98630.34;5019654;28;20049;-81
2022/04/25 05:28:29;;;;;;;40.13;15.77;;;;;;;11.31;67.17;98643.41;5036205;28;20402;-82
2022/04/25 05:30:55;;;;;;;40.25;18.40;;;;;;;11.23;67.42;98638.69;5036914;28;20051;-84
2022/04/25 05:33:21;;;;;;;35.67;16.92;;;;;;;11.28;67.85;98645.97;5021995;28;20060;-83
2022/04/25 05:35:47;;;;;;;34.97;17.38;;;;;;;11.39;67.77;98641.06;5035962;28;20049;-83
2022/04/25 05:38:14;;;;;;;39.05;17.67;;;;;;;11.39;67.77;98647.34;5019226;28;20057;-82
2022/04/25 05:41:01;;;;;;;33.85;16.48;;;;;;;11.21;67.48;98652.66;5018764;28;20077;-83
2022/04/25 05:43:36;;;;;;;47.40;17.08;;;;;;;11.06;67.69;98639.31;5014872;28;20087;-83
2022/04/25 05:46:03;;;;;;;38.33;16.03;;;;;;;11.09;67.14;98624.22;5018790;28;20049;-84
2022/04/25 05:54:00;;;;;;;33.42;15.05;;;;;;;11.09;66.33;98638.72;5021584;28;20045;-87
2022/04/25 05:56:27;;;;;;;31.25;14.32;;;;;;;11.14;66.36;98655.00;5025799;28;20087;-84
2022/04/25 05:58:56;;;;;;;34.63;14.98;;;;;;;11.08;66.13;98648.00;5035080;28;20084;-81
2022/04/25 06:01:26;;;;;;;34.00;15.18;;;;;;;11.24;66.01;98669.56;5034700;28;20525;-82
2022/04/25 06:03:52;;;;;;;33.30;14.90;;;;;;;11.13;65.67;98647.09;5046450;28;20045;-83
2022/04/25 06:06:21;;;;;;;35.08;14.60;;;;;;;11.27;65.66;98671.72;5033065;28;20520;-84
2022/04/25 06:08:47;;;;;;;37.35;14.98;;;;;;;11.18;66.29;98686.09;5052197;28;20048;-77
2022/04/25 06:11:14;;;;;;;33.22;15.20;;;;;;;11.29;65.81;98664.78;5064395;28;20117;-77
2022/04/25 06:13:44;;;;;;;35.07;14.67;;;;;;;11.43;65.61;98664.78;5056949;28;20147;-77
2022/04/25 06:16:11;;;;;;;36.03;15.35;;;;;;;11.53;65.26;98669.22;5038152;28;20029;-77
2022/04/25 06:18:37;;;;;;;45.45;16.38;;;;;;;11.61;65.51;98670.41;5034120;28;20093;-78
2022/04/25 06:21:03;;;;;;;35.75;14.48;;;;;;;11.57;65.21;98678.41;5056984;28;20077;-77
2022/04/25 06:23:30;;;;;;;31.58;14.82;;;;;;;11.54;65.24;98678.22;5041762;28;20052;-78
2022/04/25 06:25:56;;;;;;;;;;;;;;;11.53;65.16;98679.34;5014741;28;20484;-79
2022/04/25 06:28:24;;;;;;;33.60;13.77;;;;;;;11.52;65.23;98669.50;5020521;28;19968;-78
2022/04/25 06:30:52;;;;;;;33.47;15.55;;;;;;;11.54;65.07;98656.31;5034183;28;20045;-77
2022/04/25 06:33:18;;;;;;;42.38;16.55;;;;;;;11.55;64.86;98666.16;5029769;28;20505;-78
2022/04/25 06:35:45;;;;;;;31.40;14.35;;;;;;;11.57;64.27;98648.31;5032792;28;20406;-79
2022/04/25 06:38:11;;;;;;;34.67;17.13;;;;;;;11.60;64.26;98652.34;5017379;28;20107;-80
2022/04/25 06:40:38;;;;;;;36.45;19.02;;;;;;;11.49;64.28;98632.63;5045999;28;20041;-79
2022/04/25 06:43:04;;;;;;;46.93;25.67;;;;;;;11.65;64.76;98627.59;5015510;28;20155;-77
2022/04/25 06:45:31;;;;;;;45.72;22.27;;;;;;;11.77;64.86;98633.31;5052607;28;20045;-79
2022/04/25 06:47:58;;;;;;;41.28;18.48;;;;;;;11.87;64.32;98629.53;5051316;28;20052;-78
2022/04/25 06:50:24;;;;;;;36.58;14.98;;;;;;;11.94;64.29;98622.78;5053194;28;20064;-78
2022/04/25 06:52:50;;;;;;;38.63;15.73;;;;;;;11.97;63.55;98619.44;5053282;28;20057;-78
2022/04/25 06:55:16;;;;;;;33.85;14.32;;;;;;;12.02;63.61;98606.47;5035813;28;20073;-79
2022/04/25 06:57:42;;;;;;;36.95;15.23;;;;;;;12.12;63.81;98607.28;5048774;28;20065;-78
2022/04/25 07:00:11;;;;;;;33.22;15.15;;;;;;;12.17;63.27;98604.41;5043167;28;20073;-78
2022/04/25 07:02:38;;;;;;;29.73;13.93;;;;;;;12.18;63.01;98587.66;5012132;28;20042;-79
2022/04/25 07:05:06;;;;;;;31.35;14.27;;;;;;;12.29;62.86;98587.41;5050234;28;20084;-79
2022/04/25 07:07:32;;;;;;;28.60;14.18;;;;;;;12.41;62.26;98600.50;5033111;28;20080;-79
2022/04/25 07:09:59;;;;;;;34.97;15.30;;;;;;;12.47;62.43;98599.22;5031252;28;20045;-78
2022/04/25 07:12:27;;;;;;;41.65;14.18;;;;;;;12.52;62.11;98598.28;5031563;28;20114;-78
2022/04/25 07:14:53;;;;;;;33.00;15.02;;;;;;;12.58;61.69;98606.03;5049779;28;20522;-79
2022/04/25 07:17:19;;;;;;;29.52;14.77;;;;;;;12.59;60.91;98613.16;5051636;28;20049;-79
2022/04/25 07:19:46;;;;;;;33.00;14.65;;;;;;;12.63;60.81;98600.41;5050199;28;20047;-79
2022/04/25 07:30:28;;;;;;;33.30;14.60;;;;;;;12.88;60.00;98609.03;5043085;28;20048;-77
2022/04/25 07:32:55;;;;;;;47.05;15.55;;;;;;;12.89;60.09;98613.41;5026526;28;20098;-77
2022/04/25 07:35:21;;;;;;;31.48;14.52;;;;;;;12.99;59.79;98598.56;5052780;28;20041;-78
2022/04/25 07:37:48;;;;;;;33.30;14.57;;;;;;;13.03;59.44;98593.25;5053933;28;20061;-77
2022/04/25 07:40:15;;;;;;;27.17;12.88;;;;;;;13.13;59.31;98603.94;5049048;28;20083;-76
2022/04/25 07:42:41;;;;;;;32.45;15.05;;;;;;;13.16;58.88;98597.78;5030802;28;20103;-77
2022/04/25 07:45:09;;;;;;;38.42;14.88;;;;;;;13.24;59.41;98589.88;5009191;28;20475;-76
2022/04/25 07:47:35;;;;;;;34.35;17.42;;;;;;;13.31;58.88;98593.75;5011986;28;20071;-76
2022/04/25 07:50:02;;;;;;;28.08;13.68;;;;;;;13.34;58.18;98589.56;5032945;28;20048;-77
2022/04/25 07:52:30;;;;;;;31.73;12.48;;;;;;;13.42;58.27;98596.97;5029550;28;20089;-76
2022/04/25 07:54:57;;;;;;;35.92;19.85;;;;;;;13.46;57.99;98598.00;5031539;28;20048;-76
2022/04/25 07:57:23;;;;;;;36.35;17.13;;;;;;;13.50;57.72;98591.84;5052527;28;20053;-82
2022/04/25 07:59:49;;;;;;;32.22;13.77;;;;;;;13.51;57.63;98585.22;5022476;28;20521;-81
2022/04/25 08:02:17;;;;;;;31.83;14.15;;;;;;;13.68;57.83;98587.16;5051944;28;20139;-81
2022/04/25 08:04:45;;;;;;;;;;;;;;;13.75;57.17;98581.97;5030701;28;20843;-80
2022/04/25 08:07:11;;;;;;;31.55;14.30;;;;;;;13.79;57.44;98595.88;5051568;28;20408;-81
2022/04/25 08:09:37;;;;;;;27.45;13.95;;;;;;;13.78;56.72;98575.03;5016720;28;20066;-80
2022/04/25 08:20:20;;;;;;;45.20;18.63;;;;;;;14.21;55.65;98587.03;5028965;28;20506;-81
2022/04/25 08:22:47;;;;;;;37.58;16.33;;;;;;;14.25;54.80;98563.22;5021925;28;20425;-83
2022/04/25 08:25:15;;;;;;;34.30;16.48;;;;;;;14.28;54.65;98565.31;5031313;28;20151;-80
2022/04/25 08:27:42;;;;;;;35.90;14.50;;;;;;;14.31;54.25;98570.19;5050041;28;20051;-79
2022/04/25 08:30:08;;;;;;;31.02;13.82;;;;;;;14.36;53.79;98580.16;5053951;28;20140;-77
2022/04/25 08:32:35;;;;;;;43.15;16.65;;;;;;;14.37;53.58;98581.81;5051193;28;20052;-77
2022/04/25 08:35:02;;;;;;;38.45;15.50;;;;;;;14.32;53.37;98566.28;5035595;28;20048;-81
2022/04/25 08:37:30;;;;;;;49.17;18.23;;;;;;;14.43;53.36;98570.25;5034956;28;20488;-81
2022/04/25 08:39:56;;;;;;;39.08;14.60;;;;;;;14.53;53.18;98562.78;5017361;28;20064;-82
2022/04/25 08:42:22;;;;;;;31.60;14.82;;;;;;;14.55;52.49;98560.50;5030360;28;20102;-83
2022/04/25 08:44:52;;;;;;;25.05;13.77;;;;;;;14.63;52.11;98567.09;5030353;28;20076;-84
2022/04/25 08:47:19;;;;;;;38.67;16.20;;;;;;;14.66;51.76;98547.19;5012471;28;20460;-83
2022/04/25 08:49:46;;;;;;;29.85;14.00;;;;;;;14.84;51.55;98551.50;5031994;28;20091;-83
2022/04/25 08:52:12;;;;;;;25.52;12.75;;;;;;;14.88;51.33;98535.91;5002169;28;20471;-83
2022/04/25 08:54:39;;;;;;;28.40;15.32;;;;;;;14.93;51.18;98548.69;5047344;28;20110;-78
2022/04/25 08:57:05;;;;;;;29.10;13.57;;;;;;;15.07;50.86;98536.59;5049553;28;20049;-76
2022/04/25 08:59:32;;;;;;;57.92;17.58;;;;;;;15.21;50.89;98539.84;5048774;28;20053;-80
2022/04/25 09:01:59;;;;;;;35.42;15.60;;;;;;;15.36;50.40;98546.72;5052411;28;20103;-80
2022/04/25 09:04:26;;;;;;;35.28;13.35;;;;;;;15.36;49.71;98552.22;5035127;28;20045;-79
2022/04/25 09:06:55;;;;;;;28.98;13.75;;;;;;;15.45;49.62;98539.19;5035480;28;20052;-86
2022/04/25 09:09:22;;;;;;;33.58;15.60;;;;;;;15.52;49.60;98537.81;5036690;28;20520;-86
2022/04/25 09:14:34;;;;;;;36.17;14.90;;;;;;;15.69;49.49;98518.38;5027716;28;20250;-82
2022/04/25 09:17:03;;;;;;;32.25;14.00;;;;;;;15.77;48.90;98524.13;5010391;28;20053;-84
2022/04/25 09:19:30;;;;;;;32.45;12.82;;;;;;;15.79;48.46;98524.59;5051626;28;20583;-83
2022/04/25 09:21:56;;;;;;;25.42;12.73;;;;;;;15.95;47.81;98524.75;5014984;28;20433;-83
2022/04/25 09:24:24;;;;;;;23.27;11.77;;;;;;;16.06;48.26;98516.84;5021751;28;20517;-85
2022/04/25 09:26:52;;;;;;;28.45;13.65;;;;;;;16.26;47.20;98518.72;5036202;28;20111;-81
2022/04/25 09:29:25;;;;;;;24.38;13.35;;;;;;;16.24;46.65;98532.03;5036229;28;20060;-81
2022/04/25 09:31:51;;;;;;;31.88;13.15;;;;;;;16.26;46.30;98521.47;5034393;28;20140;-81
2022/04/25 09:37:06;;;;;;;29.52;13.27;;;;;;;16.33;46.87;98515.38;5046963;28;20402;-84
2022/04/25 09:39:32;;;;;;;27.15;13.43;;;;;;;16.29;46.86;98490.44;5021224;28;20047;-83
2022/04/25 09:42:00;;;;;;;36.43;15.03;;;;;;;16.39;46.63;98505.72;5035613;28;20490;-84
2022/04/25 09:44:26;;;;;;;;;;;;;;;16.42;46.03;98515.25;5021665;28;20417;-83
2022/04/25 09:46:52;;;;;;;31.67;15.43;;;;;;;16.33;46.17;98487.00;5034267;28;19924;-85
2022/04/25 09:49:23;;;;;;;27.00;14.98;;;;;;;16.39;46.18;98499.38;5052839;28;20342;-83
2022/04/25 09:52:02;;;;;;;22.55;13.93;;;;;;;16.36;45.41;98516.63;5015804;28;20064;-83
2022/04/25 09:54:29;;;;;;;24.02;15.02;;;;;;;16.41;45.28;98494.34;5051272;28;20056;-81
2022/04/25 09:56:55;;;;;;;34.37;12.87;;;;;;;16.44;45.48;98491.69;5037767;28;20540;-82
2022/04/25 09:59:22;;;;;;;26.85;13.18;;;;;;;16.55;45.35;98500.31;5043002;28;20140;-85
2022/04/25 10:02:04;;;;;;;24.85;11.88;;;;;;;16.56;43.85;98507.44;5038481;28;20045;-83
2022/04/25 10:04:32;;;;;;;25.38;12.07;;;;;;;16.52;43.35;98500.19;5037243;28;20045;-86
2022/04/25 10:07:00;;;;;;;35.00;13.77;;;;;;;16.55;42.46;98489.28;5051824;28;20414;-83
2022/04/25 10:09:30;;;;;;;21.02;12.65;;;;;;;16.73;42.71;98497.31;5032907;28;20556;-79
2022/04/25 10:11:58;;;;;;;25.77;12.13;;;;;;;16.86;43.07;98495.31;5033244;28;20143;-79
2022/04/25 10:14:26;;;;;;;23.25;12.68;;;;;;;16.90;42.46;98501.72;5052785;28;20398;-80
2022/04/25 10:16:53;;;;;;;;;;;;;;;16.83;42.26;98502.31;5052863;28;20528;-80
2022/04/25 10:19:21;;;;;;;23.80;14.25;;;;;;;16.76;42.44;98491.06;5034572;28;20028;-80
2022/04/25 10:21:48;;;;;;;25.88;11.65;;;;;;;16.76;42.59;98491.06;5051760;28;20041;-81
2022/04/25 10:24:18;;;;;;;18.38;11.82;;;;;;;16.83;42.29;98502.31;5031511;28;20555;-80
2022/04/25 10:26:46;;;;;;;23.48;11.52;;;;;;;16.82;42.57;98506.22;5034240;28;20399;-80
2022/04/25 10:29:17;;;;;;;24.85;11.73;;;;;;;16.83;42.28;98496.00;5050324;28;20513;-80
2022/04/25 10:31:47;;;;;;;26.13;11.65;;;;;;;16.84;42.72;98492.09;5053148;28;20649;-80
2022/04/25 10:34:17;;;;;;;24.83;12.43;;;;;;;16.90;42.12;98484.38;5034357;28;20260;-80
2022/04/25 10:36:45;;;;;;;17.48;10.27;;;;;;;16.84;40.73;98489.34;5022857;28;20080;-80
2022/04/25 10:39:14;;;;;;;17.88;10.18;;;;;;;16.91;39.93;98489.53;5052695;28;20094;-80
2022/04/25 10:45:00;;;;;;;19.33;11.02;;;;;;;16.93;41.62;98494.72;5034233;28;20049;-80
2022/04/25 10:47:27;;;;;;;26.02;11.43;;;;;;;17.05;41.99;98485.63;5045408;28;20098;-80
2022/04/25 10:50:02;;;;;;;19.85;10.68;;;;;;;17.14;40.92;98497.31;5052462;28;20053;-80
2022/04/25 10:53:04;;;;;;;17.77;9.70;;;;;;;17.17;39.77;98496.63;5018184;28;20049;-80
2022/04/25 10:55:42;;;;;;;18.58;10.68;;;;;;;17.31;40.27;98473.31;5051901;28;20047;-80
2022/04/25 10:58:11;;;;;;;15.73;9.52;;;;;;;17.55;40.15;98469.63;5018022;28;20103;-80
2022/04/25 11:00:46;;;;;;;20.55;10.27;;;;;;;17.70;39.34;98468.84;5052052;28;20052;-81
2022/04/25 11:03:14;;;;;;;21.85;9.55;;;;;;;17.79;39.24;98462.34;5017355;28;20316;-81
2022/04/25 11:05:45;;;;;;;25.15;9.82;;;;;;;17.85;39.53;98456.19;5027063;28;20096;-81
2022/04/25 11:08:31;;;;;;;27.50;10.57;;;;;;;17.98;39.13;98462.44;5026281;28;20053;-81
2022/04/25 11:11:03;;;;;;;;;;;;;;;18.06;38.56;98465.41;5011122;28;20033;-81
2022/04/25 11:13:35;;;;;;;38.08;10.85;;;;;;;17.97;39.14;98466.38;5033827;28;20042;-81
2022/04/25 11:16:18;;;;;;;22.92;10.05;;;;;;;17.78;38.96;98460.72;5012420;28;20413;-81
2022/04/25 11:18:45;;;;;;;20.45;11.15;;;;;;;17.54;39.60;98463.28;5030436;28;20498;-81
2022/04/25 11:21:13;;;;;;;20.98;11.13;;;;;;;17.43;39.22;98467.75;5010476;28;20506;-81
2022/04/25 11:23:47;;;;;;;;;;;;;;;17.29;39.28;98485.53;5033438;28;20425;-81
2022/04/25 11:26:47;;;;;;;18.33;9.88;;;;;;;17.14;39.41;98473.25;5024258;28;19928;-80
2022/04/25 11:29:14;;;;;;;19.38;9.38;;;;;;;17.11;39.58;98478.72;5051854;28;20135;-80
2022/04/25 11:31:40;;;;;;;19.40;10.30;;;;;;;17.20;39.54;98464.75;5051510;28;20045;-79
2022/04/25 11:34:11;;;;;;;15.50;9.10;;;;;;;17.14;39.68;98455.91;5033318;28;20044;-79
2022/04/25 11:36:40;;;;;;;18.67;10.27;;;;;;;17.03;40.03;98474.94;5033839;28;20045;-80
2022/04/25 11:41:52;;;;;;;25.00;11.23;;;;;;;16.83;39.48;98436.06;5051780;28;20045;-80
2022/04/25 11:44:19;;;;;;;15.10;8.70;;;;;;;17.13;39.28;98454.31;5032319;28;20527;-80
2022/04/25 11:46:47;;;;;;;13.57;7.97;;;;;;;17.19;38.66;98457.63;5050746;28;20311;-79
2022/04/25 11:49:26;;;;;;;21.73;9.18;;;;;;;17.35;38.69;98464.00;5051559;28;20485;-80
2022/04/25 11:51:52;;;;;;;16.08;8.27;;;;;;;17.17;38.53;98454.38;5051558;28;20041;-81
2022/04/25 11:54:19;;;;;;;15.68;7.45;;;;;;;17.11;37.78;98449.13;5048447;28;20037;-80
2022/04/25 11:56:45;;;;;;;15.10;7.40;;;;;;;17.30;38.46;98444.88;5014147;28;20067;-79
2022/04/25 11:59:14;;;;;;;17.42;7.65;;;;;;;17.61;37.82;98429.50;5051326;28;20104;-79
2022/04/25 12:01:47;;;;;;;18.40;7.18;;;;;;;17.62;38.18;98433.09;5034802;28;20681;-80